Time;durP1;ratioP1;P1;durP2;ratioP2;P2;SDS_P1;SDS_P2;PMS_P1;PMS_P2;Temp;Humidity;BMP_temperature;BMP_pressure;BME280_temperature;BME280_humidity;BME280_pressure;Samples;Min_cycle;Max_cycle;Signal;HPM_P1;HPM_P2
2021/03/24 00:01:51;;;;;;;40.63;18.57;;;3.60;99.90;;;;;;4419733;28;658225;-88
2021/03/24 00:04:38;;;;;;;40.53;14.70;;;3.60;99.90;;;;;;4416552;28;658590;-87
2021/03/24 00:07:25;;;;;;;43.70;18.03;;;3.80;99.90;;;;;;4403344;28;658258;-87
2021/03/24 00:10:14;;;;;;;42.70;18.93;;;3.90;99.90;;;;;;4408181;28;658187;-86
2021/03/24 00:13:01;;;;;;;41.37;18.20;;;3.70;99.90;;;;;;4389154;28;657863;-88
2021/03/24 00:15:48;;;;;;;45.33;19.97;;;3.70;99.90;;;;;;4399355;28;657534;-87
2021/03/24 00:18:35;;;;;;;43.33;20.00;;;3.60;99.90;;;;;;4404507;28;657952;-87
2021/03/24 00:21:23;;;;;;;38.77;17.80;;;3.60;99.90;;;;;;4404821;28;657359;-86
2021/03/24 00:24:10;;;;;;;43.10;18.47;;;3.70;99.90;;;;;;4417577;28;659076;-88
2021/03/24 00:26:58;;;;;;;31.30;12.37;;;3.60;99.90;;;;;;4413474;28;657424;-88
2021/03/24 00:29:45;;;;;;;42.40;17.67;;;3.70;99.90;;;;;;4409425;28;658317;-87
2021/03/24 00:32:32;;;;;;;44.77;19.47;;;3.60;99.90;;;;;;4420925;28;657873;-87
2021/03/24 00:35:19;;;;;;;46.47;20.37;;;3.50;99.90;;;;;;4402252;28;657741;-88
2021/03/24 00:38:06;;;;;;;39.17;19.00;;;3.60;99.90;;;;;;4410719;28;658201;-88
2021/03/24 00:40:55;;;;;;;41.50;18.93;;;3.50;99.90;;;;;;4383388;28;657747;-87
2021/03/24 00:43:43;;;;;;;42.63;18.93;;;3.50;99.90;;;;;;4414381;28;658383;-86
2021/03/24 00:46:30;;;;;;;48.93;22.13;;;3.40;99.90;;;;;;4416417;28;657625;-88
2021/03/24 00:49:17;;;;;;;41.60;19.73;;;3.50;99.90;;;;;;4399936;28;658078;-85
2021/03/24 00:52:05;;;;;;;45.97;20.90;;;3.40;99.90;;;;;;4421093;28;657663;-88
2021/03/24 00:54:52;;;;;;;44.35;18.35;;;3.50;99.90;;;;;;4400240;28;657977;-86
2021/03/24 00:57:39;;;;;;;42.30;18.50;;;3.40;99.90;;;;;;4423982;28;658453;-89
2021/03/24 01:00:29;;;;;;;45.83;19.73;;;3.60;99.90;;;;;;4416040;28;657724;-86
2021/03/24 01:03:16;;;;;;;40.57;17.77;;;3.50;99.90;;;;;;4414007;28;657909;-88
2021/03/24 01:06:03;;;;;;;49.03;19.80;;;3.60;99.90;;;;;;4412657;28;657590;-88
2021/03/24 01:08:50;;;;;;;41.83;18.73;;;3.50;99.90;;;;;;4439510;28;657936;-88
2021/03/24 01:11:38;;;;;;;45.75;20.83;;;3.50;99.90;;;;;;4407317;28;658564;-86
2021/03/24 01:14:25;;;;;;;47.13;20.10;;;3.50;99.90;;;;;;4428586;28;659230;-87
2021/03/24 01:17:13;;;;;;;45.87;20.07;;;3.40;99.90;;;;;;4429557;28;658226;-87
2021/03/24 01:20:00;;;;;;;42.70;17.90;;;3.40;99.90;;;;;;4412632;28;658695;-87
2021/03/24 01:22:46;;;;;;;48.03;21.87;;;3.50;99.90;;;;;;4445069;28;657410;-87
2021/03/24 01:25:33;;;;;;;49.17;21.13;;;3.50;99.90;;;;;;4402312;28;657263;-87
2021/03/24 01:28:22;;;;;;;40.43;17.13;;;3.40;99.90;;;;;;4425590;28;658636;-87
2021/03/24 01:31:09;;;;;;;45.30;20.93;;;3.50;99.90;;;;;;4409107;28;658769;-88
2021/03/24 01:33:57;;;;;;;43.17;20.20;;;3.40;99.90;;;;;;4422886;28;657411;-89
2021/03/24 01:36:44;;;;;;;42.30;19.93;;;3.40;99.90;;;;;;4396401;28;657758;-88
2021/03/24 01:39:31;;;;;;;44.33;20.43;;;3.50;99.90;;;;;;4437240;28;658064;-88
2021/03/24 01:42:18;;;;;;;50.87;22.17;;;3.30;99.90;;;;;;4410744;28;657782;-88
2021/03/24 01:45:10;;;;;;;46.80;21.63;;;3.40;99.90;;;;;;4420133;28;658227;-88
2021/03/24 01:47:58;;;;;;;48.97;20.53;;;3.30;99.90;;;;;;4411462;28;658330;-88
2021/03/24 01:50:46;;;;;;;50.33;21.90;;;3.30;99.90;;;;;;4421627;28;658728;-88
2021/03/24 01:53:33;;;;;;;55.43;22.33;;;3.20;99.90;;;;;;4426708;28;657694;-86
2021/03/24 01:56:20;;;;;;;50.60;22.70;;;3.20;99.90;;;;;;4425783;28;658639;-87
2021/03/24 01:59:07;;;;;;;49.77;22.70;;;3.10;99.90;;;;;;4427430;28;657645;-86
2021/03/24 02:01:54;;;;;;;51.70;22.77;;;3.10;99.90;;;;;;4421063;28;657749;-87
2021/03/24 02:04:41;;;;;;;51.53;23.23;;;3.00;99.90;;;;;;4429518;28;657443;-87
2021/03/24 02:07:32;;;;;;;48.83;22.50;;;3.10;99.90;;;;;;4416746;28;657958;-87
2021/03/24 02:10:22;;;;;;;50.93;22.27;;;3.00;99.90;;;;;;4410949;28;658335;-87
2021/03/24 02:13:11;;;;;;;51.80;22.37;;;3.10;99.90;;;;;;4410034;28;658474;-87
2021/03/24 02:15:59;;;;;;;57.37;22.67;;;3.00;99.90;;;;;;4421088;28;657778;-87
2021/03/24 02:18:46;;;;;;;50.17;22.87;;;3.00;99.90;;;;;;4427633;28;657987;-87
2021/03/24 02:21:34;;;;;;;54.50;21.37;;;2.80;99.90;;;;;;4417646;28;658526;-86
2021/03/24 02:24:33;;;;;;;46.55;19.67;;;3.00;99.90;;;;;;4437018;28;658238;-88
2021/03/24 02:27:21;;;;;;;54.00;22.43;;;2.90;99.90;;;;;;4393353;28;657758;-87
2021/03/24 02:30:11;;;;;;;58.47;22.87;;;2.80;99.90;;;;;;4395931;28;657879;-87
2021/03/24 02:33:01;;;;;;;52.80;22.33;;;2.90;99.90;;;;;;4424125;28;657673;-87
2021/03/24 02:35:49;;;;;;;55.58;22.88;;;2.90;99.90;;;;;;4426169;28;657257;-88
2021/03/24 02:38:37;;;;;;;49.65;20.98;;;3.10;99.90;;;;;;4431982;28;657627;-88
2021/03/24 02:41:24;;;;;;;48.47;21.97;;;3.10;99.90;;;;;;4407943;28;658127;-87
2021/03/24 02:44:12;;;;;;;44.20;17.65;;;3.00;99.90;;;;;;4428118;28;657439;-87
2021/03/24 02:46:59;;;;;;;49.10;20.50;;;3.00;99.90;;;;;;4425475;28;657939;-88
2021/03/24 02:49:46;;;;;;;45.38;20.33;;;3.00;99.90;;;;;;4418124;28;657664;-87
2021/03/24 02:52:33;;;;;;;53.37;22.10;;;3.00;99.90;;;;;;4414955;28;657651;-87
2021/03/24 02:55:21;;;;;;;55.85;22.65;;;3.00;99.90;;;;;;4430569;28;658393;-88
2021/03/24 02:58:08;;;;;;;49.27;21.27;;;3.00;99.90;;;;;;4407268;28;657722;-87
2021/03/24 03:00:56;;;;;;;49.47;22.97;;;3.00;99.90;;;;;;4439256;28;658313;-88
2021/03/24 03:03:44;;;;;;;52.10;22.60;;;3.10;99.90;;;;;;4407267;28;658060;-88
2021/03/24 03:06:32;;;;;;;51.70;19.97;;;3.00;99.90;;;;;;4433510;28;657622;-88
2021/03/24 03:09:25;;;;;;;54.03;23.10;;;3.00;99.90;;;;;;4405315;28;658016;-87
2021/03/24 03:12:18;;;;;;;49.13;22.30;;;3.00;99.90;;;;;;4392644;28;658073;-86
2021/03/24 03:15:07;;;;;;;46.47;21.27;;;2.90;99.90;;;;;;4405839;28;658190;-87
2021/03/24 03:17:56;;;;;;;51.90;20.97;;;3.00;99.90;;;;;;4413602;28;658646;-89
2021/03/24 03:20:45;;;;;;;48.37;21.90;;;3.00;99.90;;;;;;4407282;28;657894;-89
2021/03/24 03:23:32;;;;;;;47.73;21.10;;;3.00;99.90;;;;;;4403179;28;657537;-87
2021/03/24 03:26:20;;;;;;;50.07;22.87;;;3.10;99.90;;;;;;4432259;28;657296;-87
2021/03/24 03:29:11;;;;;;;50.53;22.80;;;3.00;99.90;;;;;;4413011;28;657633;-86
2021/03/24 03:31:58;;;;;;;52.40;22.67;;;2.90;99.90;;;;;;4411921;28;657551;-88
2021/03/24 03:34:48;;;;;;;49.17;20.90;;;2.80;99.90;;;;;;4428452;28;658534;-87
2021/03/24 03:37:35;;;;;;;52.10;20.43;;;2.80;99.90;;;;;;4406210;28;657704;-87
2021/03/24 03:40:23;;;;;;;52.08;21.75;;;2.70;99.90;;;;;;4410169;28;658255;-86
2021/03/24 03:43:12;;;;;;;53.80;21.37;;;2.80;99.90;;;;;;4422691;28;658075;-88
2021/03/24 03:46:00;;;;;;;50.63;19.17;;;2.70;99.90;;;;;;4409917;28;657678;-87
2021/03/24 03:48:47;;;;;;;46.87;20.70;;;2.90;99.90;;;;;;4409505;28;658526;-86
2021/03/24 03:51:40;;;;;;;46.00;18.67;;;2.90;99.90;;;;;;4415531;28;658445;-88
2021/03/24 03:54:29;;;;;;;52.67;20.77;;;2.90;99.90;;;;;;4410694;28;658401;-86
2021/03/24 03:57:19;;;;;;;53.47;21.70;;;2.80;99.90;;;;;;4440174;28;657617;-87
2021/03/24 04:00:12;;;;;;;51.97;21.43;;;2.90;99.90;;;;;;4414103;28;658398;-87
2021/03/24 04:03:00;;;;;;;43.37;19.20;;;2.80;99.90;;;;;;4410165;28;658514;-86
2021/03/24 04:05:50;;;;;;;49.97;21.33;;;2.80;99.90;;;;;;4424487;28;657760;-86
2021/03/24 04:08:38;;;;;;;46.23;20.43;;;2.70;99.90;;;;;;4423286;28;657535;-86
2021/03/24 04:11:26;;;;;;;46.73;20.80;;;2.70;99.90;;;;;;4435024;28;658635;-88
2021/03/24 04:14:15;;;;;;;56.37;21.20;;;2.90;99.90;;;;;;4395479;28;657466;-86
2021/03/24 04:17:02;;;;;;;52.70;21.80;;;3.00;99.90;;;;;;4440876;28;657327;-88
2021/03/24 04:19:51;;;;;;;52.83;20.10;;;2.90;99.90;;;;;;4409936;28;659281;-87
2021/03/24 04:22:38;;;;;;;51.47;21.00;;;2.80;99.90;;;;;;4421740;28;657409;-89
2021/03/24 04:25:27;;;;;;;48.37;21.33;;;2.70;99.90;;;;;;4421420;28;658727;-88
2021/03/24 04:28:15;;;;;;;42.97;18.37;;;2.80;99.90;;;;;;4411274;28;658997;-88
2021/03/24 04:31:04;;;;;;;49.87;21.13;;;2.80;99.90;;;;;;4397292;28;657734;-87
2021/03/24 04:33:51;;;;;;;50.73;20.73;;;2.80;99.90;;;;;;4438413;28;658090;-87
2021/03/24 04:36:39;;;;;;;49.53;19.07;;;2.80;99.90;;;;;;4423834;28;657746;-88
2021/03/24 04:39:30;;;;;;;50.00;20.93;;;2.90;99.90;;;;;;4439060;28;657621;-86
2021/03/24 04:42:22;;;;;;;53.70;21.70;;;2.90;99.90;;;;;;4410375;28;657886;-86
2021/03/24 04:45:18;;;;;;;55.27;21.27;;;3.00;99.90;;;;;;4392448;28;657859;-88
2021/03/24 04:48:08;;;;;;;46.33;20.10;;;2.80;99.90;;;;;;4398622;28;658169;-87
2021/03/24 04:50:57;;;;;;;44.13;19.60;;;2.70;99.90;;;;;;4417377;28;657747;-86
2021/03/24 04:53:45;;;;;;;45.03;18.93;;;2.80;99.90;;;;;;4406724;28;657874;-88
2021/03/24 04:56:32;;;;;;;49.27;19.77;;;2.90;99.90;;;;;;4450001;28;657195;-86
2021/03/24 04:59:22;;;;;;;47.63;20.73;;;2.90;99.90;;;;;;4428995;28;658444;-88
2021/03/24 05:02:11;;;;;;;48.83;20.20;;;3.00;99.90;;;;;;4431742;28;657381;-88
2021/03/24 05:05:02;;;;;;;41.30;19.73;;;3.10;99.90;;;;;;4406058;28;657876;-87
2021/03/24 05:07:52;;;;;;;52.47;21.07;;;2.90;99.90;;;;;;4396285;28;657884;-87
2021/03/24 05:10:39;;;;;;;47.70;21.27;;;2.90;99.90;;;;;;4413793;28;658282;-88
2021/03/24 05:13:28;;;;;;;46.33;20.27;;;2.80;99.90;;;;;;4430497;28;657133;-87
2021/03/24 05:16:18;;;;;;;49.73;19.63;;;2.90;99.90;;;;;;4404185;28;658217;-88
2021/03/24 05:19:05;;;;;;;46.67;20.83;;;2.90;99.90;;;;;;4402184;28;658257;-88
2021/03/24 05:22:03;;;;;;;44.53;20.00;;;2.90;99.90;;;;;;4433354;28;657360;-86
2021/03/24 05:24:50;;;;;;;52.20;20.73;;;2.90;99.90;;;;;;4414900;28;657899;-88
2021/03/24 05:27:40;;;;;;;43.77;19.67;;;3.00;99.90;;;;;;4411720;28;657783;-86
2021/03/24 05:30:28;;;;;;;55.60;20.87;;;3.00;99.90;;;;;;4419890;28;656896;-88
2021/03/24 05:33:18;;;;;;;44.80;20.13;;;3.10;99.90;;;;;;4412419;28;658143;-87
2021/03/24 05:36:09;;;;;;;33.13;12.85;;;3.20;99.90;;;;;;4417605;28;658298;-88
2021/03/24 05:38:56;;;;;;;51.93;22.30;;;3.30;99.90;;;;;;4431599;28;657997;-89
2021/03/24 05:41:45;;;;;;;52.17;20.87;;;3.30;99.90;;;;;;4426606;28;657625;-87
2021/03/24 05:45:00;;;;;;;51.57;21.53;;;3.30;99.90;;;;;;4434511;28;657610;-85
2021/03/24 05:48:06;;;;;;;56.63;22.17;;;3.40;99.90;;;;;;4387214;28;657454;-88
2021/03/24 05:51:12;;;;;;;46.27;21.40;;;3.20;99.90;;;;;;4395275;28;658392;-88
2021/03/24 05:54:11;;;;;;;47.97;20.77;;;3.30;99.90;;;;;;4418093;28;658106;-88
2021/03/24 05:57:18;;;;;;;53.03;21.90;;;3.50;99.90;;;;;;4425581;28;657546;-87
2021/03/24 06:00:14;;;;;;;52.93;20.57;;;3.40;99.90;;;;;;4412874;28;658324;-88
2021/03/24 06:03:11;;;;;;;47.80;21.30;;;3.50;99.90;;;;;;4412437;28;657630;-87
2021/03/24 06:06:23;;;;;;;48.43;22.03;;;3.40;99.90;;;;;;4415208;28;658566;-87
2021/03/24 06:09:55;;;;;;;47.20;21.40;;;3.60;99.90;;;;;;4325103;28;657696;-89
2021/03/24 06:13:01;;;;;;;50.67;23.00;;;3.60;99.90;;;;;;4331802;28;658101;-86
2021/03/24 06:16:12;;;;;;;56.47;23.73;;;3.70;99.90;;;;;;4347301;28;658443;-88
2021/03/24 06:19:15;;;;;;;49.87;19.10;;;3.80;99.90;;;;;;4320102;28;657687;-88
2021/03/24 06:22:09;;;;;;;45.53;20.40;;;3.80;99.90;;;;;;4309990;28;657919;-86
2021/03/24 06:25:03;;;;;;;51.33;23.30;;;3.80;99.90;;;;;;4347609;28;658380;-87
2021/03/24 06:27:59;;;;;;;47.50;21.83;;;3.90;99.90;;;;;;4325140;28;657980;-86
2021/03/24 06:30:52;;;;;;;46.93;20.03;;;4.00;99.90;;;;;;4336406;28;657815;-87
2021/03/24 06:34:17;;;;;;;45.97;17.87;;;4.00;99.90;;;;;;4339837;28;657619;-87
2021/03/24 06:37:42;;;;;;;46.67;20.00;;;4.00;99.90;;;;;;4341108;28;657453;-89
2021/03/24 06:40:40;;;;;;;50.07;21.20;;;4.10;99.90;;;;;;4328589;28;657814;-86
2021/03/24 06:44:14;;;;;;;44.03;18.70;;;4.10;99.90;;;;;;4336945;28;658141;-86
2021/03/24 06:47:03;;;;;;;49.30;22.70;;;4.30;99.90;;;;;;4252343;29;657970;-87
2021/03/24 06:49:52;;;;;;;46.57;18.60;;;4.30;99.90;;;;;;4290846;28;658435;-87
2021/03/24 06:53:02;;;;;;;49.13;22.87;;;4.40;99.90;;;;;;4320200;28;658301;-89
2021/03/24 06:56:31;;;;;;;55.87;22.67;;;4.50;99.90;;;;;;4333688;28;657600;-88
2021/03/24 06:59:46;;;;;;;52.87;21.93;;;4.50;99.90;;;;;;4340308;28;657855;-87
2021/03/24 07:02:55;;;;;;;49.20;22.13;;;4.50;99.90;;;;;;4326119;28;657789;-87
2021/03/24 07:06:09;;;;;;;54.53;22.60;;;4.60;99.90;;;;;;4333752;28;658132;-87
2021/03/24 07:09:16;;;;;;;49.90;21.90;;;4.60;99.90;;;;;;4308650;28;658032;-88
2021/03/24 07:12:18;;;;;;;46.37;21.77;;;4.60;99.90;;;;;;4322977;28;658181;-89
2021/03/24 07:15:27;;;;;;;52.47;22.73;;;4.50;99.90;;;;;;4323163;28;657935;-89
2021/03/24 07:18:43;;;;;;;54.83;21.83;;;4.70;99.90;;;;;;4321678;28;657621;-88
2021/03/24 07:22:02;;;;;;;44.63;20.20;;;4.70;99.90;;;;;;4330306;28;657729;-89
2021/03/24 07:25:43;;;;;;;51.30;22.73;;;4.80;99.90;;;;;;4319407;28;658038;-87
2021/03/24 07:28:58;;;;;;;49.53;21.50;;;4.90;99.90;;;;;;4287976;29;657662;-88
2021/03/24 07:32:11;;;;;;;44.83;19.57;;;4.80;99.90;;;;;;4283578;29;658036;-88
2021/03/24 07:35:24;;;;;;;46.60;21.57;;;5.00;99.90;;;;;;4293031;29;658063;-87
2021/03/24 07:38:47;;;;;;;47.67;21.53;;;4.90;99.90;;;;;;4277827;29;658158;-87
2021/03/24 07:41:48;;;;;;;51.77;21.67;;;5.00;99.90;;;;;;4277959;29;657543;-86
2021/03/24 07:45:04;;;;;;;44.80;22.10;;;4.90;99.90;;;;;;4274502;29;658198;-88
2021/03/24 07:48:26;;;;;;;46.73;21.30;;;5.00;99.90;;;;;;4281982;29;657869;-86
2021/03/24 07:51:16;;;;;;;46.27;22.50;;;5.00;99.90;;;;;;4224061;29;657616;-87
2021/03/24 07:54:05;;;;;;;46.20;19.87;;;5.10;99.90;;;;;;4228211;29;657749;-87
2021/03/24 07:56:55;;;;;;;45.73;20.23;;;5.20;99.90;;;;;;4229441;29;658171;-86
2021/03/24 07:59:44;;;;;;;48.53;22.30;;;5.30;99.90;;;;;;4229530;29;657553;-86
2021/03/24 08:02:39;;;;;;;45.87;20.87;;;5.30;99.90;;;;;;4250534;29;657918;-88
2021/03/24 08:05:42;;;;;;;49.77;20.00;;;5.40;99.90;;;;;;4226830;29;657637;-88
2021/03/24 08:08:48;;;;;;;46.47;21.02;;;5.40;99.90;;;;;;4310680;29;657553;-89
2021/03/24 08:11:37;;;;;;;46.47;21.37;;;5.50;99.90;;;;;;4307728;28;657968;-89
2021/03/24 08:14:33;;;;;;;40.60;17.67;;;5.40;99.90;;;;;;4312663;28;657963;-88
2021/03/24 08:17:31;;;;;;;45.25;19.73;;;5.60;99.90;;;;;;4327051;28;657866;-89
2021/03/24 08:20:32;;;;;;;41.53;16.90;;;5.60;99.90;;;;;;4309545;28;658062;-88
2021/03/24 08:23:47;;;;;;;44.03;19.15;;;5.70;99.90;;;;;;4314871;28;658184;-88
2021/03/24 08:26:38;;;;;;;42.73;18.37;;;5.80;99.90;;;;;;4320910;28;657444;-88
2021/03/24 08:29:29;;;;;;;43.23;18.50;;;5.90;99.90;;;;;;4391138;28;658656;-89
2021/03/24 08:32:41;;;;;;;40.93;18.60;;;5.90;99.90;;;;;;4397623;28;658696;-88
2021/03/24 08:36:05;;;;;;;36.63;17.40;;;5.90;99.90;;;;;;4396307;28;658017;-89
2021/03/24 08:39:05;;;;;;;37.93;18.33;;;6.00;99.90;;;;;;4396727;28;658251;-87
2021/03/24 08:42:44;;;;;;;40.23;18.17;;;6.20;99.90;;;;;;4412707;28;657827;-87
2021/03/24 08:45:34;;;;;;;40.03;16.83;;;6.20;99.90;;;;;;4343235;28;657790;-88
2021/03/24 08:48:30;;;;;;;40.30;16.93;;;6.20;99.90;;;;;;4330656;28;658238;-88
2021/03/24 08:51:22;;;;;;;33.57;17.27;;;6.40;99.90;;;;;;4343957;28;657803;-88
2021/03/24 08:54:46;;;;;;;38.03;17.83;;;6.40;99.90;;;;;;4340328;28;658783;-87
2021/03/24 08:58:04;;;;;;;38.07;16.97;;;6.40;99.90;;;;;;4344329;28;658096;-88
2021/03/24 09:01:14;;;;;;;39.93;18.03;;;6.50;99.90;;;;;;4323313;28;657490;-89
2021/03/24 09:04:21;;;;;;;35.97;17.27;;;6.50;99.90;;;;;;4325986;28;657616;-88
2021/03/24 09:07:16;;;;;;;40.67;15.40;;;6.50;99.90;;;;;;4326446;28;657834;-89
2021/03/24 09:10:31;;;;;;;33.17;15.30;;;6.50;99.90;;;;;;4325845;28;657794;-89
2021/03/24 09:13:23;;;;;;;32.00;15.60;;;6.30;99.90;;;;;;4296251;28;658532;-87
2021/03/24 09:16:23;;;;;;;34.70;15.27;;;6.30;99.90;;;;;;4326763;28;657826;-88
2021/03/24 09:19:18;;;;;;;32.77;15.90;;;6.40;99.90;;;;;;4343176;28;657694;-88
2021/03/24 09:22:08;;;;;;;32.53;15.17;;;6.60;99.90;;;;;;4375909;28;658458;-89
2021/03/24 09:25:20;;;;;;;34.73;15.10;;;6.80;99.90;;;;;;4372942;28;658402;-88
2021/03/24 09:28:47;;;;;;;35.27;14.70;;;6.80;99.90;;;;;;4344576;28;658318;-88
2021/03/24 09:32:17;;;;;;;32.83;16.07;;;6.80;99.90;;;;;;4366246;28;657690;-88
2021/03/24 09:35:25;;;;;;;34.40;16.27;;;6.80;99.90;;;;;;4272451;29;658179;-89
2021/03/24 09:38:13;;;;;;;30.50;15.40;;;6.90;99.90;;;;;;4293983;29;658096;-90
2021/03/24 09:41:22;;;;;;;30.77;13.47;;;6.90;99.90;;;;;;4272637;29;658388;-88
2021/03/24 09:44:11;;;;;;;32.17;15.63;;;7.00;99.90;;;;;;4280273;28;657820;-88
2021/03/24 09:50:45;;;;;;;24.30;10.07;;;7.00;99.90;;;;;;4311652;28;657873;-89
2021/03/24 09:53:32;;;;;;;35.33;15.20;;;7.30;99.90;;;;;;4319269;28;657573;-88
2021/03/24 09:56:21;;;;;;;32.63;14.82;;;7.30;99.90;;;;;;4326178;28;658579;-86
2021/03/24 09:59:13;;;;;;;30.17;15.40;;;7.20;99.90;;;;;;4325188;28;658099;-89
2021/03/24 10:02:05;;;;;;;32.57;15.50;;;7.20;99.90;;;;;;4325615;28;658495;-88
2021/03/24 10:04:53;;;;;;;32.77;15.53;;;7.20;99.90;;;;;;4323382;28;657940;-87
2021/03/24 10:07:42;;;;;;;27.77;13.07;;;7.10;99.90;;;;;;4341947;28;658553;-89
2021/03/24 10:10:31;;;;;;;31.97;15.53;;;7.10;99.90;;;;;;4326089;28;657964;-88
2021/03/24 10:13:20;;;;;;;29.80;13.20;;;7.10;99.90;;;;;;4340075;28;658009;-88
2021/03/24 10:16:13;;;;;;;32.47;16.00;;;7.00;99.90;;;;;;4419883;28;657434;-89
2021/03/24 10:19:02;;;;;;;32.73;14.57;;;6.80;99.90;;;;;;4410946;28;657990;-88
2021/03/24 10:21:53;;;;;;;26.67;13.27;;;6.90;99.90;;;;;;4413382;28;658568;-89
2021/03/24 10:24:43;;;;;;;34.03;15.70;;;7.10;99.90;;;;;;4420821;28;658162;-88
2021/03/24 10:27:31;;;;;;;29.50;14.63;;;7.00;99.90;;;;;;4429451;28;657767;-88
2021/03/24 10:30:36;;;;;;;32.33;15.30;;;7.00;99.90;;;;;;4422314;28;657632;-88
2021/03/24 10:33:26;;;;;;;26.70;13.30;;;7.00;99.90;;;;;;4418737;28;658267;-88
2021/03/24 10:36:17;;;;;;;31.97;12.70;;;7.00;99.90;;;;;;4417355;28;657780;-89
2021/03/24 10:39:06;;;;;;;29.07;13.97;;;7.10;99.90;;;;;;4430040;28;659004;-88
2021/03/24 10:41:58;;;;;;;33.77;15.53;;;7.20;99.90;;;;;;4402890;28;657797;-87
2021/03/24 10:44:48;;;;;;;37.07;15.33;;;7.30;99.90;;;;;;4415030;28;658951;-89
2021/03/24 10:47:37;;;;;;;30.33;15.50;;;7.30;99.90;;;;;;4412177;28;658562;-89
2021/03/24 10:50:36;;;;;;;27.60;14.70;;;7.40;99.90;;;;;;4418747;28;658039;-88
2021/03/24 10:53:24;;;;;;;29.00;13.80;;;7.20;99.90;;;;;;4405109;28;657899;-88
2021/03/24 10:56:19;;;;;;;28.63;13.27;;;7.10;99.90;;;;;;4412220;28;658183;-89
2021/03/24 10:59:10;;;;;;;30.23;14.60;;;7.30;99.90;;;;;;4408946;28;657958;-89
2021/03/24 11:01:59;;;;;;;33.20;16.30;;;7.20;99.90;;;;;;4419380;28;657643;-88
2021/03/24 11:04:50;;;;;;;35.00;15.67;;;7.10;99.90;;;;;;4426256;28;657165;-89
2021/03/24 11:07:42;;;;;;;29.27;14.97;;;7.20;99.90;;;;;;4392412;28;658012;-86
2021/03/24 11:10:43;;;;;;;29.80;14.87;;;7.30;99.90;;;;;;4400411;28;658351;-88
2021/03/24 11:13:31;;;;;;;28.47;14.50;;;7.40;99.90;;;;;;4413318;28;658098;-88
2021/03/24 11:16:24;;;;;;;38.40;16.90;;;7.40;99.90;;;;;;4421142;28;658108;-88
2021/03/24 11:19:17;;;;;;;37.95;18.02;;;7.70;99.90;;;;;;4417380;28;657977;-88
2021/03/24 11:22:14;;;;;;;38.53;18.60;;;7.50;99.90;;;;;;4419338;28;657939;-88
2021/03/24 11:25:03;;;;;;;35.47;17.07;;;7.50;99.90;;;;;;4421240;28;658170;-88
2021/03/24 11:27:51;;;;;;;28.20;13.20;;;7.50;99.90;;;;;;4411749;28;658100;-87
2021/03/24 11:30:39;;;;;;;34.63;14.97;;;7.50;99.90;;;;;;4391038;28;657537;-88
2021/03/24 11:33:35;;;;;;;27.05;13.57;;;7.60;99.90;;;;;;4430716;28;657910;-88
2021/03/24 11:36:24;;;;;;;33.10;14.70;;;7.60;99.90;;;;;;4387305;28;658053;-86
2021/03/24 11:39:14;;;;;;;30.07;14.60;;;7.70;99.90;;;;;;4417235;28;657441;-89
2021/03/24 11:42:08;;;;;;;28.70;14.97;;;7.60;99.90;;;;;;4411609;28;658125;-88
2021/03/24 11:44:55;;;;;;;20.67;8.43;;;7.70;99.90;;;;;;4405068;28;658333;-87
2021/03/24 11:47:50;;;;;;;30.13;14.60;;;7.70;99.90;;;;;;4407620;28;656540;-87
2021/03/24 11:50:41;;;;;;;26.67;13.93;;;7.70;99.90;;;;;;4405987;28;658247;-85
2021/03/24 11:53:35;;;;;;;32.67;15.23;;;7.80;99.90;;;;;;4400031;28;658277;-87
2021/03/24 11:56:25;;;;;;;31.60;14.30;;;7.80;99.90;;;;;;4410294;28;657627;-87
2021/03/24 11:59:13;;;;;;;27.90;15.27;;;7.80;99.90;;;;;;4422307;28;657632;-88
2021/03/24 12:02:06;;;;;;;25.65;14.13;;;7.90;99.90;;;;;;4411811;28;657853;-89
2021/03/24 12:05:10;;;;;;;31.07;14.80;;;7.90;99.90;;;;;;4416027;28;657461;-86
2021/03/24 12:08:06;;;;;;;27.50;14.63;;;7.90;99.90;;;;;;4423956;28;657325;-85
2021/03/24 12:11:02;;;;;;;31.40;15.88;;;7.90;99.90;;;;;;4408767;28;658381;-89
2021/03/24 12:13:49;;;;;;;29.43;14.87;;;7.90;99.90;;;;;;4395138;28;658019;-88
2021/03/24 12:16:44;;;;;;;25.87;13.57;;;7.90;99.90;;;;;;4420396;28;657837;-89
2021/03/24 12:19:34;;;;;;;31.00;15.70;;;8.00;99.90;;;;;;4396979;28;657615;-87
2021/03/24 12:22:27;;;;;;;33.10;16.47;;;8.10;99.90;;;;;;4404261;28;657921;-88
2021/03/24 12:25:18;;;;;;;30.97;15.27;;;8.20;99.90;;;;;;4417520;28;658653;-89
2021/03/24 12:28:06;;;;;;;30.17;15.30;;;8.30;99.90;;;;;;4401831;28;657748;-87
2021/03/24 12:30:58;;;;;;;29.77;14.53;;;8.40;99.90;;;;;;4413888;28;658143;-86
2021/03/24 12:33:49;;;;;;;31.43;15.90;;;8.40;99.90;;;;;;4407200;28;658278;-87
2021/03/24 12:36:45;;;;;;;27.50;15.20;;;8.50;99.90;;;;;;4413865;28;658290;-88
2021/03/24 12:39:34;;;;;;;32.57;19.13;;;8.50;99.90;;;;;;4396571;28;657996;-88
2021/03/24 12:42:26;;;;;;;35.07;18.80;;;8.60;99.90;;;;;;4430769;28;657551;-87
2021/03/24 12:45:36;;;;;;;36.67;18.80;;;8.60;99.90;;;;;;4414956;28;657712;-88
2021/03/24 12:48:24;;;;;;;33.80;14.73;;;8.70;99.90;;;;;;4413078;28;657768;-87
2021/03/24 12:51:13;;;;;;;27.50;14.20;;;9.10;99.90;;;;;;4448846;28;657274;-86
2021/03/24 12:54:01;;;;;;;30.67;15.87;;;9.10;99.90;;;;;;4390088;28;658335;-88
2021/03/24 12:57:23;;;;;;;27.87;14.77;;;9.00;99.90;;;;;;4393621;28;658052;-87
2021/03/24 13:00:25;;;;;;;29.88;15.00;;;9.00;99.90;;;;;;4415986;28;658067;-88
2021/03/24 13:03:36;;;;;;;31.87;15.73;;;9.10;99.90;;;;;;4390498;28;657660;-89
2021/03/24 13:06:29;;;;;;;34.43;17.00;;;9.00;99.90;;;;;;4397045;28;657479;-88
2021/03/24 13:09:21;;;;;;;30.67;16.83;;;9.10;99.90;;;;;;4405714;28;657491;-88
2021/03/24 13:12:10;;;;;;;40.47;18.83;;;9.20;99.90;;;;;;4386019;28;658578;-87
2021/03/24 13:15:03;;;;;;;38.40;17.20;;;9.40;99.90;;;;;;4420167;28;657450;-86
2021/03/24 13:17:56;;;;;;;27.63;15.10;;;9.40;99.90;;;;;;4410669;28;657719;-88
2021/03/24 13:21:01;;;;;;;30.73;15.87;;;9.40;99.90;;;;;;4401012;28;657812;-88
2021/03/24 13:23:53;;;;;;;27.83;14.50;;;9.40;99.90;;;;;;4412189;28;658315;-88
2021/03/24 13:26:40;;;;;;;28.73;14.20;;;9.10;99.90;;;;;;4425656;28;657995;-88
2021/03/24 13:29:33;;;;;;;31.97;14.50;;;8.90;99.90;;;;;;4426633;28;657762;-85
2021/03/24 13:32:25;;;;;;;31.00;14.93;;;8.80;99.90;;;;;;4394138;28;658531;-89
2021/03/24 13:35:19;;;;;;;29.43;15.40;;;8.70;99.90;;;;;;4384010;28;658009;-86
2021/03/24 13:38:08;;;;;;;28.57;14.57;;;8.50;99.90;;;;;;4400559;28;657935;-88
2021/03/24 13:40:57;;;;;;;26.73;14.47;;;8.20;99.90;;;;;;4409457;28;658314;-87
2021/03/24 13:43:47;;;;;;;27.53;13.23;;;8.10;99.90;;;;;;4402052;28;659254;-87
2021/03/24 13:46:37;;;;;;;29.10;14.57;;;8.10;99.90;;;;;;4406917;28;658852;-87
2021/03/24 13:49:31;;;;;;;26.50;14.10;;;8.00;99.90;;;;;;4410693;28;658450;-86
2021/03/24 13:52:37;;;;;;;26.63;13.97;;;8.00;99.90;;;;;;4414240;28;657716;-86
2021/03/24 13:55:43;;;;;;;25.67;14.43;;;8.00;99.90;;;;;;4397959;28;658108;-87
2021/03/24 13:59:00;;;;;;;19.73;7.90;;;7.70;99.90;;;;;;4395561;28;657909;-86
2021/03/24 14:02:13;;;;;;;32.20;16.37;;;7.80;99.90;;;;;;4396905;28;657101;-86
2021/03/24 14:05:21;;;;;;;33.93;16.97;;;7.40;99.90;;;;;;4401039;28;658533;-87
2021/03/24 14:08:18;;;;;;;32.87;17.30;;;7.30;99.90;;;;;;4412751;28;657888;-85
2021/03/24 14:11:18;;;;;;;32.35;17.85;;;7.10;99.90;;;;;;4430691;28;657640;-87
2021/03/24 14:14:16;;;;;;;33.53;17.03;;;7.10;99.90;;;;;;4409548;28;657768;-87
2021/03/24 14:17:05;;;;;;;28.67;14.50;;;6.80;99.90;;;;;;4409021;28;657421;-86
2021/03/24 14:19:55;;;;;;;31.17;16.43;;;6.70;99.90;;;;;;4395528;28;657476;-86
2021/03/24 14:22:48;;;;;;;33.43;17.77;;;6.50;99.90;;;;;;4414415;28;657898;-85
2021/03/24 14:25:37;;;;;;;37.57;17.70;;;6.30;99.90;;;;;;4412593;28;658930;-88
2021/03/24 14:28:25;;;;;;;87.30;35.53;;;6.30;99.90;;;;;;4417186;28;658627;-88
2021/03/24 14:31:24;;;;;;;89.33;35.50;;;6.30;99.90;;;;;;4430575;28;657482;-86
2021/03/24 14:34:21;;;;;;;43.27;22.63;;;6.30;99.90;;;;;;4430209;28;657741;-88
2021/03/24 14:37:20;;;;;;;77.70;32.30;;;6.20;99.90;;;;;;4407386;28;657835;-86
2021/03/24 14:40:20;;;;;;;45.27;21.50;;;6.20;99.90;;;;;;4381300;28;657701;-85
2021/03/24 14:43:25;;;;;;;38.77;20.37;;;6.10;99.90;;;;;;4425486;28;657668;-85
2021/03/24 14:46:26;;;;;;;40.67;20.33;;;6.10;99.90;;;;;;4414339;28;657896;-87
2021/03/24 14:49:20;;;;;;;40.47;18.47;;;6.10;99.90;;;;;;4425888;28;657539;-87
2021/03/24 14:52:09;;;;;;;29.80;15.80;;;6.00;99.90;;;;;;4430716;28;657553;-85